createdAt,value
2023-04-19T00:02:22.190Z,1.13
2023-04-19T00:04:51.730Z,2.45
2023-04-19T00:07:21.031Z,1.63
2023-04-19T00:09:50.354Z,0.70
2023-04-19T00:12:19.658Z,1.25
2023-04-19T00:14:48.990Z,0.70
2023-04-19T00:17:20.355Z,1.25
2023-04-19T00:19:49.633Z,0.70
2023-04-19T00:22:19.023Z,0.80
2023-04-19T00:24:48.294Z,1.42
2023-04-19T00:27:17.682Z,1.75
2023-04-19T00:29:47.391Z,1.10
2023-04-19T00:32:19.013Z,0.80
2023-04-19T00:34:48.358Z,0.40
2023-04-19T00:37:18.556Z,0.47
2023-04-19T00:39:47.895Z,2.50
2023-04-19T00:42:17.261Z,0.63
2023-04-19T00:44:46.804Z,0.60
2023-04-19T00:50:01.511Z,1.00
2023-04-19T00:52:31.532Z,0.68
2023-04-19T00:55:01.458Z,1.02
2023-04-19T00:57:32.021Z,1.00
2023-04-19T01:00:01.647Z,1.13
2023-04-19T01:02:31.041Z,0.57
2023-04-19T01:05:02.105Z,1.75
2023-04-19T01:07:31.667Z,0.70
2023-04-19T01:10:00.887Z,0.98
2023-04-19T01:12:30.213Z,1.52
2023-04-19T01:14:59.533Z,0.85
2023-04-19T01:17:30.347Z,0.90
2023-04-19T01:20:04.134Z,1.33
2023-04-19T01:22:34.974Z,0.68
2023-04-19T01:25:05.137Z,0.73
2023-04-19T01:27:34.641Z,2.08
2023-04-19T01:30:04.000Z,1.63
2023-04-19T01:32:33.378Z,1.23
2023-04-19T01:35:02.689Z,1.95
2023-04-19T01:37:33.966Z,1.38
2023-04-19T01:40:03.377Z,1.25
2023-04-19T01:42:32.679Z,2.28
2023-04-19T01:45:02.237Z,1.40
2023-04-19T01:47:31.611Z,2.42
2023-04-19T01:50:00.978Z,1.30
2023-04-19T01:52:30.248Z,2.15
2023-04-19T01:55:01.361Z,1.80
2023-04-19T01:57:30.787Z,2.13
2023-04-19T02:00:00.175Z,2.78
2023-04-19T02:02:29.726Z,2.33
2023-04-19T02:04:59.933Z,2.17
2023-04-19T02:07:29.780Z,1.95
2023-04-19T02:10:00.854Z,1.67
2023-04-19T02:12:31.290Z,2.33
2023-04-19T02:15:02.396Z,2.47
2023-04-19T02:17:31.875Z,3.22
2023-04-19T02:20:01.256Z,2.10
2023-04-19T02:22:30.854Z,1.63
2023-04-19T02:25:01.948Z,2.28
2023-04-19T02:27:31.875Z,1.73
2023-04-19T02:30:01.175Z,1.83
2023-04-19T02:32:30.662Z,1.95
2023-04-19T02:34:59.935Z,1.20
2023-04-19T02:37:29.312Z,1.45
2023-04-19T02:39:58.592Z,2.60
2023-04-19T02:42:29.264Z,2.33
2023-04-19T02:44:58.823Z,1.98
2023-04-19T02:47:28.193Z,1.90
2023-04-19T02:49:57.509Z,2.17
2023-04-19T02:52:28.579Z,2.13
2023-04-19T02:54:57.926Z,2.00
2023-04-19T02:57:28.633Z,1.65
2023-04-19T02:59:59.146Z,1.45
2023-04-19T03:02:28.948Z,3.55
2023-04-19T03:04:58.312Z,1.88
2023-04-19T03:07:28.650Z,1.77
2023-04-19T03:09:57.955Z,2.85
2023-04-19T03:12:28.726Z,2.30
2023-04-19T03:14:57.966Z,5.15
2023-04-19T03:17:27.344Z,4.75
2023-04-19T03:19:56.799Z,5.13
2023-04-19T03:22:26.309Z,5.55
2023-04-19T03:24:56.074Z,5.63
2023-04-19T03:27:25.354Z,2.92
2023-04-19T03:29:58.541Z,4.35
2023-04-19T03:32:27.904Z,6.53
2023-04-19T03:34:57.321Z,6.25
2023-04-19T03:37:26.652Z,8.65
2023-04-19T03:39:56.023Z,5.82
2023-04-19T03:42:26.458Z,4.15
2023-04-19T03:44:59.180Z,3.03
2023-04-19T03:51:00.808Z,2.83
2023-04-19T03:53:30.014Z,3.80
2023-04-19T03:55:59.355Z,4.03
2023-04-19T03:58:28.979Z,4.15
2023-04-19T04:00:58.182Z,3.40
2023-04-19T04:03:27.857Z,3.78
2023-04-19T04:05:57.515Z,6.43
2023-04-19T04:08:28.263Z,17.50
2023-04-19T04:10:57.615Z,15.63
2023-04-19T04:13:27.043Z,10.23
2023-04-19T04:15:56.379Z,7.88
2023-04-19T04:18:27.355Z,6.47
2023-04-19T04:20:56.796Z,4.68
2023-04-19T04:23:29.747Z,6.15
2023-04-19T04:26:01.079Z,5.20
2023-04-19T04:28:31.217Z,7.85
2023-04-19T04:31:02.010Z,6.90
2023-04-19T04:33:31.550Z,13.80
2023-04-19T04:36:03.935Z,8.13
2023-04-19T04:38:34.718Z,5.25
2023-04-19T04:41:04.176Z,3.40
2023-04-19T04:43:33.692Z,3.00
2023-04-19T04:46:04.401Z,2.17
2023-04-19T04:48:33.774Z,3.25
2023-04-19T04:51:03.500Z,4.28
2023-04-19T04:53:34.209Z,5.03
2023-04-19T04:56:03.577Z,4.50
2023-04-19T04:58:32.855Z,3.47
2023-04-19T05:01:02.287Z,3.70
2023-04-19T05:03:33.289Z,3.30
2023-04-19T05:06:02.734Z,3.17
2023-04-19T05:08:33.574Z,2.72
2023-04-19T05:11:02.953Z,3.40
2023-04-19T05:13:33.511Z,11.10
2023-04-19T05:16:03.055Z,14.18
2023-04-19T05:18:33.703Z,11.70
2023-04-19T05:21:03.075Z,11.15
2023-04-19T05:23:33.973Z,12.82
2023-04-19T05:26:03.309Z,12.88
2023-04-19T05:28:33.914Z,12.95
2023-04-19T05:31:04.530Z,10.77
2023-04-19T05:33:33.955Z,10.38
2023-04-19T05:36:03.370Z,12.85
2023-04-19T05:38:34.131Z,11.45
2023-04-19T05:41:04.046Z,9.32
2023-04-19T05:43:33.714Z,5.72
2023-04-19T05:46:03.007Z,5.72
2023-04-19T05:48:32.423Z,6.97
2023-04-19T05:51:01.916Z,7.05
2023-04-19T05:53:31.416Z,6.72
2023-04-19T05:56:02.077Z,15.90
2023-04-19T05:58:31.552Z,11.13
2023-04-19T06:01:01.218Z,5.50
2023-04-19T06:03:32.330Z,5.50
2023-04-19T06:06:02.227Z,7.70
2023-04-19T06:08:31.868Z,9.45
2023-04-19T06:11:11.896Z,8.63
2023-04-19T06:13:52.357Z,13.25
2023-04-19T06:16:21.922Z,18.23
2023-04-19T07:42:09.706Z,0.80
2023-04-19T07:44:39.622Z,2.58
2023-04-19T07:47:08.921Z,0.70
2023-04-19T07:49:38.661Z,1.08
2023-04-19T07:52:10.140Z,3.90
2023-04-19T07:54:40.472Z,3.05
2023-04-19T07:57:11.239Z,1.40
2023-04-19T07:59:40.704Z,0.85
2023-04-19T08:02:10.151Z,2.05
2023-04-19T08:04:40.130Z,2.22
2023-04-19T08:07:09.829Z,1.42
2023-04-19T08:09:39.185Z,1.50
2023-04-19T08:12:12.770Z,2.30
2023-04-19T08:14:59.257Z,5.90
2023-04-19T08:20:07.032Z,2.58
2023-04-19T08:22:36.337Z,2.65
2023-04-19T08:25:06.834Z,2.53
2023-04-19T08:27:38.616Z,2.45
2023-04-19T08:30:11.087Z,1.50
2023-04-19T08:32:40.720Z,1.70
2023-04-19T08:35:11.448Z,0.47
2023-04-19T08:37:40.780Z,4.43
2023-04-19T08:40:11.977Z,2.15
2023-04-19T08:42:42.770Z,3.03
2023-04-19T08:47:56.816Z,2.00
2023-04-19T08:53:16.231Z,1.67
2023-04-19T08:56:10.611Z,5.57
2023-04-19T08:59:04.042Z,2.83
2023-04-19T09:01:36.495Z,3.08
2023-04-19T09:04:26.273Z,2.40
2023-04-19T09:06:58.061Z,1.10
2023-04-19T09:09:37.026Z,1.08
2023-04-19T09:12:19.302Z,1.45
2023-04-19T09:15:01.359Z,0.80
2023-04-19T09:17:32.420Z,1.10
2023-04-19T09:20:02.084Z,0.70
2023-04-19T09:22:31.728Z,1.05
2023-04-19T09:25:34.429Z,1.10
2023-04-19T09:27:51.794Z,1.77
2023-04-19T09:30:32.388Z,1.02
2023-04-19T09:33:03.685Z,0.90
2023-04-19T09:35:43.588Z,0.65
2023-04-19T09:38:13.726Z,1.83
2023-04-19T09:40:45.210Z,2.25
2023-04-19T09:43:45.176Z,2.42
2023-04-19T09:46:05.486Z,2.78
2023-04-19T09:51:07.478Z,6.25
2023-04-19T09:53:43.175Z,10.60
2023-04-19T09:56:13.726Z,10.15
2023-04-19T09:58:49.988Z,3.60
2023-04-19T10:01:24.607Z,4.30
2023-04-19T10:03:55.978Z,3.42
2023-04-19T10:06:45.652Z,4.35
2023-04-19T10:24:21.592Z,8.55
2023-04-19T10:27:12.815Z,8.25
2023-04-19T10:29:58.606Z,5.00
2023-04-19T10:32:30.655Z,12.73
2023-04-19T10:35:06.268Z,5.53
2023-04-19T10:38:44.783Z,5.10
2023-04-19T10:41:17.549Z,3.65
2023-04-19T10:43:49.612Z,8.13
2023-04-19T10:46:40.444Z,2.20
2023-04-19T10:49:13.709Z,3.13
2023-04-19T10:51:53.130Z,2.25
2023-04-19T10:54:34.571Z,4.35
2023-04-19T10:57:06.086Z,2.92
2023-04-19T10:59:36.840Z,3.47
2023-04-19T11:02:08.366Z,3.15
2023-04-19T11:05:14.632Z,3.45
2023-04-19T11:07:45.023Z,3.42
2023-04-19T11:10:20.153Z,8.45
2023-04-19T11:12:49.566Z,3.63
2023-04-19T11:15:18.996Z,4.47
2023-04-19T11:18:08.857Z,2.75
2023-04-19T11:20:41.375Z,2.90
2023-04-19T11:23:19.284Z,4.53
2023-04-19T11:25:54.057Z,3.00
2023-04-19T11:28:24.682Z,1.83
2023-04-19T11:30:54.810Z,2.35
2023-04-19T11:33:26.226Z,2.42
2023-04-19T11:35:55.625Z,2.80
2023-04-19T11:38:25.090Z,10.25
2023-04-19T11:41:02.770Z,2.97
2023-04-19T11:43:36.089Z,2.88
2023-04-19T11:46:09.441Z,3.53
2023-04-19T11:48:39.428Z,2.03
2023-04-19T11:51:09.236Z,2.65
2023-04-19T11:53:38.668Z,2.50
2023-04-19T11:56:11.560Z,3.05
2023-04-19T11:58:45.070Z,4.03
2023-04-19T12:01:16.653Z,2.20
2023-04-19T12:03:49.391Z,2.42
2023-04-19T13:24:09.044Z,2.22
2023-04-19T13:26:38.995Z,2.88
2023-04-19T13:29:09.187Z,2.42
2023-04-19T13:31:38.802Z,2.80
2023-04-19T13:34:08.362Z,2.88
2023-04-19T13:36:37.968Z,2.65
2023-04-19T13:39:09.019Z,2.55
2023-04-19T13:41:38.777Z,1.52
2023-04-19T13:44:08.268Z,1.90
2023-04-19T13:46:37.875Z,1.75
2023-04-19T13:49:07.469Z,1.55
2023-04-19T13:51:48.936Z,3.30
2023-04-19T13:54:21.804Z,1.60
2023-04-19T13:56:52.432Z,1.10
2023-04-19T13:59:22.785Z,1.45
2023-04-19T14:01:52.268Z,1.70
2023-04-19T14:04:22.400Z,1.58
2023-04-19T14:06:52.179Z,1.92
2023-04-19T14:09:23.153Z,2.45
2023-04-19T14:11:53.683Z,1.60
2023-04-19T14:14:23.211Z,1.40
2023-04-19T14:16:52.846Z,3.63
2023-04-19T14:19:22.505Z,3.00
2023-04-19T14:21:52.000Z,2.78
2023-04-19T14:24:22.993Z,2.60
2023-04-19T14:27:03.486Z,2.13
2023-04-19T14:29:39.029Z,1.85
2023-04-19T14:32:24.518Z,2.22
2023-04-19T14:34:56.363Z,2.40
2023-04-19T14:37:26.612Z,2.42
2023-04-19T14:39:57.559Z,1.23
2023-04-19T14:42:26.972Z,1.67
2023-04-19T14:44:56.389Z,0.88
2023-04-19T14:47:25.847Z,1.83
2023-04-19T14:49:55.772Z,2.35
2023-04-19T14:52:26.129Z,2.70
2023-04-19T14:54:57.873Z,1.35
2023-04-19T14:57:27.479Z,1.73
2023-04-19T14:59:58.750Z,1.30
2023-04-19T15:02:28.614Z,1.58
2023-04-19T15:04:59.064Z,1.00
2023-04-19T15:07:28.886Z,1.40
2023-04-19T15:10:00.546Z,1.08
2023-04-19T15:12:30.047Z,1.53
2023-04-19T15:14:59.834Z,1.98
2023-04-19T15:17:29.356Z,1.98
2023-04-19T15:19:58.936Z,3.47
2023-04-19T15:22:28.327Z,3.38
2023-04-19T15:24:59.236Z,3.33
2023-04-19T15:27:28.715Z,2.65
2023-04-19T15:29:58.230Z,3.13
2023-04-19T15:32:29.317Z,3.92
2023-04-19T15:34:59.054Z,3.90
2023-04-19T15:37:28.810Z,6.10
2023-04-19T15:40:02.059Z,7.30
2023-04-19T15:42:31.490Z,5.32
2023-04-19T15:45:01.021Z,6.00
2023-04-19T15:51:01.747Z,6.07
2023-04-19T15:53:31.377Z,6.80
2023-04-19T15:56:00.784Z,5.07
2023-04-19T15:58:30.277Z,3.13
2023-04-19T16:00:59.777Z,3.25
2023-04-19T16:03:29.539Z,3.78
2023-04-19T16:06:00.458Z,2.42
2023-04-19T16:08:29.953Z,3.40
2023-04-19T16:10:59.589Z,3.88
2023-04-19T16:13:31.261Z,2.78
2023-04-19T16:16:01.553Z,3.33
2023-04-19T16:18:31.424Z,4.55
2023-04-19T16:21:02.312Z,2.28
2023-04-19T16:23:31.941Z,3.45
2023-04-19T16:26:01.440Z,3.05
2023-04-19T16:28:31.077Z,4.72
2023-04-19T16:31:00.607Z,2.60
2023-04-19T16:33:30.068Z,3.50
2023-04-19T16:36:00.869Z,2.33
2023-04-19T16:38:30.496Z,3.13
2023-04-19T16:41:02.315Z,2.45
2023-04-19T16:43:31.828Z,2.33
2023-04-19T16:46:01.504Z,3.40
2023-04-19T16:48:31.189Z,2.65
2023-04-19T16:51:02.271Z,3.47
2023-04-19T16:53:33.255Z,3.70
2023-04-19T16:56:03.918Z,3.35
2023-04-19T16:58:33.312Z,4.10
2023-04-19T17:01:02.943Z,4.55
2023-04-19T17:03:32.615Z,4.07
2023-04-19T17:06:03.956Z,5.10
2023-04-19T17:08:33.534Z,4.75
2023-04-19T17:11:03.080Z,3.00
2023-04-19T17:13:32.555Z,3.80
2023-04-19T17:16:02.834Z,5.07
2023-04-19T17:18:32.269Z,5.13
2023-04-19T17:21:03.546Z,3.10
2023-04-19T17:23:32.970Z,4.47
2023-04-19T17:26:02.413Z,7.63
2023-04-19T17:28:31.854Z,2.95
2023-04-19T17:31:01.567Z,3.35
2023-04-19T17:33:31.085Z,3.47
2023-04-19T17:36:00.513Z,8.32
2023-04-19T17:38:31.500Z,6.05
2023-04-19T17:41:03.071Z,8.30
2023-04-19T17:43:32.488Z,10.95
2023-04-19T17:46:01.997Z,7.18
2023-04-19T17:48:31.495Z,6.43
2023-04-19T17:51:01.028Z,7.55
2023-04-19T17:53:31.959Z,7.88
2023-04-19T17:56:01.616Z,7.18
2023-04-19T17:58:31.108Z,6.72
2023-04-19T18:01:01.093Z,7.50
2023-04-19T18:03:31.178Z,8.63
2023-04-19T18:06:00.853Z,5.18
2023-04-19T18:08:31.914Z,5.68
2023-04-19T18:11:01.345Z,6.55
2023-04-19T18:13:31.189Z,8.90
2023-04-19T18:16:00.747Z,11.77
2023-04-19T18:18:30.348Z,14.13
2023-04-19T18:21:00.144Z,10.35
2023-04-19T18:23:31.223Z,7.43
2023-04-19T18:26:04.395Z,6.78
2023-04-19T18:28:35.650Z,7.97
2023-04-19T18:31:05.228Z,7.50
2023-04-19T18:33:35.099Z,7.72
2023-04-19T18:36:04.781Z,8.30
2023-04-19T18:38:35.762Z,7.45
2023-04-19T18:41:05.354Z,8.73
2023-04-19T18:43:34.833Z,10.52
2023-04-19T18:46:04.343Z,7.15
2023-04-19T18:51:00.658Z,7.57
2023-04-19T18:53:31.124Z,9.57
2023-04-19T18:56:01.784Z,10.40
2023-04-19T18:58:32.069Z,7.78
2023-04-19T19:01:01.834Z,3.30
2023-04-19T19:03:57.974Z,3.45
2023-04-19T19:06:23.101Z,3.90
2023-04-19T19:08:54.916Z,4.15
2023-04-19T19:13:56.877Z,3.45
2023-04-19T19:16:27.429Z,1.48
2023-04-19T19:18:57.076Z,1.13
2023-04-19T19:21:29.627Z,1.42
2023-04-19T19:23:59.699Z,1.45
2023-04-19T19:26:29.271Z,3.00
2023-04-19T19:29:01.140Z,4.53
2023-04-19T19:31:30.994Z,0.95
2023-04-19T19:34:18.684Z,1.40
2023-04-19T19:36:52.083Z,0.75
2023-04-19T19:39:21.827Z,1.05
2023-04-19T19:42:05.324Z,1.48
2023-04-19T19:44:35.910Z,3.13
2023-04-19T19:47:09.932Z,1.20
2023-04-19T19:50:04.707Z,0.98
2023-04-19T19:52:32.755Z,2.15
2023-04-19T19:55:02.763Z,1.08
2023-04-19T19:58:16.420Z,1.48
2023-04-19T20:05:27.307Z,1.23
2023-04-19T20:08:09.946Z,1.75
2023-04-19T20:13:12.081Z,1.80
2023-04-19T20:15:42.186Z,1.73
2023-04-19T20:18:11.828Z,2.65
2023-04-19T20:20:41.475Z,4.15
2023-04-19T20:23:12.493Z,1.23
2023-04-19T20:25:41.971Z,1.80
2023-04-19T20:28:12.728Z,1.48
2023-04-19T20:30:42.392Z,1.95
2023-04-19T20:33:11.779Z,5.00
2023-04-19T20:35:42.276Z,5.07
2023-04-19T20:38:13.172Z,2.70
2023-04-19T20:40:44.387Z,1.77
2023-04-19T20:43:13.994Z,4.00
2023-04-19T20:45:43.489Z,3.47
2023-04-19T20:48:13.446Z,3.88
2023-04-19T20:50:44.148Z,3.70
2023-04-19T20:53:15.167Z,4.90
2023-04-19T20:55:45.048Z,3.15
2023-04-19T20:58:14.496Z,3.25
2023-04-19T21:00:44.048Z,3.53
2023-04-19T21:03:13.620Z,3.50
2023-04-19T21:05:43.415Z,4.70
2023-04-19T21:08:16.349Z,4.65
2023-04-19T21:10:45.933Z,7.70
2023-04-19T21:13:15.588Z,5.05
2023-04-19T21:15:45.095Z,4.85
2023-04-19T21:18:14.727Z,7.47
2023-04-19T21:20:44.214Z,9.35
2023-04-19T21:23:16.679Z,6.72
2023-04-19T21:25:46.192Z,7.05
2023-04-19T21:28:15.728Z,4.22
2023-04-19T21:30:45.116Z,6.97
2023-04-19T21:33:14.897Z,3.60
2023-04-19T21:35:44.552Z,4.47
2023-04-19T21:38:15.594Z,6.03
2023-04-19T21:40:45.117Z,5.95
2023-04-19T21:43:14.857Z,5.85
2023-04-19T21:45:44.553Z,4.75
2023-04-19T21:51:01.401Z,2.95
2023-04-19T21:53:31.385Z,3.70
2023-04-19T21:56:02.849Z,3.45
2023-04-19T21:58:32.492Z,2.60
2023-04-19T22:01:02.165Z,5.20
2023-04-19T22:03:32.085Z,3.85
2023-04-19T22:06:05.069Z,3.70
2023-04-19T22:08:35.972Z,4.82
2023-04-19T22:11:06.972Z,3.15
2023-04-19T22:13:38.944Z,4.32
2023-04-19T22:16:12.491Z,2.80
2023-04-19T22:18:42.792Z,3.42
2023-04-19T22:21:17.394Z,2.50
2023-04-19T22:23:48.751Z,2.50
2023-04-19T22:26:22.783Z,3.60
2023-04-19T22:28:54.315Z,4.05
2023-04-19T22:31:26.609Z,3.17
2023-04-19T22:33:57.827Z,5.00
2023-04-19T22:36:29.831Z,3.58
2023-04-19T22:39:14.095Z,4.73
2023-04-19T22:41:48.850Z,4.00
2023-04-19T22:44:25.868Z,9.45
2023-04-19T22:46:59.152Z,5.88
2023-04-19T22:49:33.785Z,2.95
2023-04-19T22:52:26.746Z,4.13
2023-04-19T22:55:07.264Z,4.63
2023-04-19T22:57:59.090Z,3.22
2023-04-19T23:00:39.225Z,6.68
2023-04-19T23:03:13.567Z,3.30
2023-04-19T23:05:49.068Z,4.47
2023-04-19T23:08:20.276Z,5.15
2023-04-19T23:10:51.103Z,5.65
2023-04-19T23:13:20.834Z,4.65
2023-04-19T23:15:50.898Z,5.50
2023-04-19T23:18:21.526Z,3.97
2023-04-19T23:20:51.087Z,5.97
2023-04-19T23:23:22.056Z,3.97
2023-04-19T23:25:51.729Z,7.18
2023-04-19T23:28:21.091Z,4.82
2023-04-19T23:30:50.766Z,5.35
2023-04-19T23:33:20.437Z,7.57
2023-04-19T23:35:50.846Z,7.68
2023-04-19T23:38:21.856Z,7.63
2023-04-19T23:40:51.568Z,7.07
2023-04-19T23:43:21.331Z,4.90
2023-04-19T23:45:50.873Z,11.07
2023-04-19T23:48:20.310Z,7.38
2023-04-19T23:50:50.031Z,6.40
2023-04-19T23:53:21.065Z,7.32
2023-04-19T23:55:50.644Z,8.73
2023-04-19T23:58:20.259Z,7.40
